createdAt,value
2018-10-18T00:01:41.783Z,19.70
2018-10-18T00:04:12.032Z,21.20
2018-10-18T00:06:41.092Z,20.43
2018-10-18T00:09:11.577Z,21.47
2018-10-18T00:11:40.812Z,20.27
2018-10-18T00:14:10.072Z,18.97
2018-10-18T00:16:39.204Z,19.83
2018-10-18T00:19:08.423Z,18.77
2018-10-18T00:21:37.670Z,19.53
2018-10-18T00:24:06.976Z,21.17
2018-10-18T00:26:36.323Z,19.47
2018-10-18T00:29:05.515Z,20.63
2018-10-18T00:31:34.593Z,21.10
2018-10-18T00:34:03.695Z,20.27
2018-10-18T00:36:32.719Z,19.20
2018-10-18T00:39:01.681Z,20.17
2018-10-18T00:41:30.760Z,21.73
2018-10-18T00:43:59.918Z,20.67
2018-10-18T00:46:29.060Z,21.53
2018-10-18T00:48:58.175Z,20.80
2018-10-18T00:51:27.368Z,20.63
2018-10-18T00:53:56.478Z,19.43
2018-10-18T00:56:25.628Z,21.30
2018-10-18T00:58:54.728Z,21.10
2018-10-18T01:01:23.845Z,19.93
2018-10-18T01:03:53.088Z,20.00
2018-10-18T01:06:22.144Z,20.13
2018-10-18T01:08:51.215Z,20.27
2018-10-18T01:11:20.585Z,19.00
2018-10-18T01:13:49.792Z,19.50
2018-10-18T01:16:18.872Z,19.67
2018-10-18T01:18:48.028Z,19.03
2018-10-18T01:21:17.132Z,19.50
2018-10-18T01:23:46.084Z,20.13
2018-10-18T01:26:15.301Z,19.37
2018-10-18T01:28:44.284Z,19.27
2018-10-18T01:31:13.384Z,19.37
2018-10-18T01:33:42.642Z,18.63
2018-10-18T01:36:11.827Z,20.43
2018-10-18T01:38:41.089Z,20.43
2018-10-18T01:41:10.265Z,19.23
2018-10-18T01:43:39.477Z,20.93
2018-10-18T01:46:08.604Z,20.33
2018-10-18T01:48:37.677Z,19.13
2018-10-18T01:51:06.858Z,19.13
2018-10-18T01:53:35.969Z,18.47
2018-10-18T01:56:05.155Z,18.47
2018-10-18T01:58:34.272Z,18.23
2018-10-18T02:01:03.543Z,18.47
2018-10-18T02:03:32.861Z,19.80
2018-10-18T02:06:02.068Z,19.07
2018-10-18T02:08:31.259Z,18.67
2018-10-18T02:11:00.373Z,18.57
2018-10-18T02:13:29.537Z,19.43
2018-10-18T02:15:58.551Z,18.30
2018-10-18T02:18:27.656Z,20.50
2018-10-18T02:20:56.836Z,17.47
2018-10-18T02:23:25.970Z,18.30
2018-10-18T02:25:55.892Z,19.53
2018-10-18T02:28:24.915Z,18.37
2018-10-18T02:30:53.920Z,17.37
2018-10-18T02:33:22.913Z,18.73
2018-10-18T02:35:52.054Z,19.13
2018-10-18T02:38:21.384Z,18.63
2018-10-18T02:40:50.499Z,19.27
2018-10-18T02:43:19.707Z,18.60
2018-10-18T02:45:48.793Z,19.13
2018-10-18T02:48:18.027Z,17.73
2018-10-18T02:50:46.985Z,18.03
2018-10-18T02:53:16.002Z,18.23
2018-10-18T02:55:45.077Z,18.80
2018-10-18T02:58:14.026Z,19.03
2018-10-18T03:00:43.197Z,17.40
2018-10-18T03:03:12.327Z,19.53
2018-10-18T03:05:41.327Z,17.57
2018-10-18T03:08:10.436Z,18.00
2018-10-18T03:10:39.559Z,18.90
2018-10-18T03:13:08.656Z,17.90
2018-10-18T03:15:37.927Z,18.73
2018-10-18T03:18:07.351Z,17.80
2018-10-18T03:20:36.432Z,17.77
2018-10-18T03:23:05.957Z,18.63
2018-10-18T03:25:34.927Z,19.00
2018-10-18T03:28:04.020Z,18.33
2018-10-18T03:30:33.967Z,18.00
2018-10-18T03:33:03.222Z,18.23
2018-10-18T03:35:32.315Z,18.63
2018-10-18T03:38:01.436Z,18.17
2018-10-18T03:40:30.543Z,18.50
2018-10-18T03:42:59.704Z,18.93
2018-10-18T03:45:28.975Z,19.20
2018-10-18T03:47:58.224Z,19.13
2018-10-18T03:50:27.328Z,19.30
2018-10-18T03:52:56.469Z,38.73
2018-10-18T03:55:25.591Z,26.50
2018-10-18T03:57:54.784Z,19.90
2018-10-18T04:00:23.621Z,17.63
2018-10-18T04:02:52.433Z,16.50
2018-10-18T04:05:21.298Z,17.53
2018-10-18T04:07:50.144Z,18.27
2018-10-18T04:10:18.980Z,19.60
2018-10-18T04:12:47.836Z,19.40
2018-10-18T04:15:16.913Z,18.53
2018-10-18T04:17:45.932Z,19.07
2018-10-18T04:20:14.897Z,17.83
2018-10-18T04:22:43.997Z,18.40
2018-10-18T04:25:13.083Z,20.07
2018-10-18T04:27:42.341Z,20.03
2018-10-18T04:30:11.607Z,20.10
2018-10-18T04:32:40.704Z,19.60
2018-10-18T04:35:09.696Z,18.47
2018-10-18T04:37:38.764Z,17.90
2018-10-18T04:40:08.004Z,20.00
2018-10-18T04:42:37.184Z,19.63
2018-10-18T04:45:07.397Z,19.23
2018-10-18T04:47:36.677Z,18.40
2018-10-18T04:50:06.136Z,17.87
2018-10-18T04:52:35.438Z,18.60
2018-10-18T04:55:05.083Z,18.20
2018-10-18T04:57:34.201Z,18.70
2018-10-18T05:00:03.382Z,18.10
2018-10-18T05:02:32.547Z,17.73
2018-10-18T05:05:12.487Z,18.30
2018-10-18T05:07:41.612Z,18.43
2018-10-18T05:10:10.816Z,18.10
2018-10-18T05:12:39.993Z,17.70
2018-10-18T05:15:09.561Z,18.33
2018-10-18T05:17:38.765Z,17.53
2018-10-18T05:20:07.897Z,17.70
2018-10-18T05:22:37.008Z,15.73
2018-10-18T05:25:06.348Z,17.70
2018-10-18T05:27:35.305Z,16.17
2018-10-18T05:30:04.745Z,18.37
2018-10-18T05:32:33.804Z,18.27
2018-10-18T05:35:02.625Z,17.73
2018-10-18T05:37:31.714Z,17.87
2018-10-18T05:40:01.196Z,17.33
2018-10-18T05:42:30.211Z,16.20
2018-10-18T05:44:59.387Z,17.03
2018-10-18T05:47:28.472Z,18.07
2018-10-18T05:49:57.484Z,23.90
2018-10-18T05:52:26.622Z,29.20
2018-10-18T05:54:55.976Z,19.70
2018-10-18T05:57:25.240Z,17.50
2018-10-18T05:59:54.333Z,18.10
2018-10-18T06:02:23.553Z,18.67
2018-10-18T06:04:52.430Z,18.67
2018-10-18T06:07:21.680Z,18.53
2018-10-18T06:09:51.112Z,18.73
2018-10-18T06:12:20.127Z,18.20
2018-10-18T06:14:49.272Z,17.20
2018-10-18T06:17:18.428Z,17.37
2018-10-18T06:19:47.349Z,16.73
2018-10-18T06:22:16.338Z,16.03
2018-10-18T06:24:45.521Z,16.93
2018-10-18T06:27:14.627Z,16.20
2018-10-18T06:29:43.811Z,15.87
2018-10-18T06:32:12.952Z,15.73
2018-10-18T06:34:41.793Z,18.57
2018-10-18T06:37:10.713Z,35.17
2018-10-18T06:39:39.536Z,17.87
2018-10-18T06:42:08.614Z,16.80
2018-10-18T06:44:37.969Z,16.37
2018-10-18T06:47:07.232Z,18.83
2018-10-18T06:49:36.447Z,18.73
2018-10-18T06:52:05.915Z,17.50
2018-10-18T06:54:35.061Z,18.60
2018-10-18T06:57:04.099Z,19.20
2018-10-18T06:59:33.264Z,18.87
2018-10-18T07:02:02.393Z,18.90
2018-10-18T07:04:31.289Z,20.47
2018-10-18T07:07:00.527Z,18.53
2018-10-18T07:09:29.676Z,17.97
2018-10-18T07:11:58.939Z,17.73
2018-10-18T07:14:28.244Z,18.30
2018-10-18T07:16:57.491Z,20.67
2018-10-18T07:19:26.712Z,19.10
2018-10-18T07:21:56.065Z,21.40
2018-10-18T07:24:25.205Z,19.30
2018-10-18T07:26:54.040Z,20.30
2018-10-18T07:29:23.308Z,21.67
2018-10-18T07:31:52.527Z,22.53
2018-10-18T07:34:21.667Z,19.30
2018-10-18T07:36:50.772Z,20.53
2018-10-18T07:39:19.868Z,20.57
2018-10-18T07:41:48.994Z,21.37
2018-10-18T07:44:18.064Z,21.00
2018-10-18T07:46:47.279Z,20.63
2018-10-18T07:49:16.378Z,20.27
2018-10-18T07:51:45.388Z,20.87
2018-10-18T07:54:14.571Z,21.27
2018-10-18T07:56:43.668Z,21.73
2018-10-18T07:59:12.769Z,21.43
2018-10-18T08:01:42.044Z,22.13
2018-10-18T08:04:11.223Z,21.40
2018-10-18T08:06:40.439Z,23.93
2018-10-18T08:09:12.187Z,20.07
2018-10-18T08:11:41.570Z,19.87
2018-10-18T08:14:11.088Z,20.03
2018-10-18T08:16:40.307Z,19.90
2018-10-18T08:19:09.692Z,20.20
2018-10-18T08:21:39.019Z,20.70
2018-10-18T08:24:08.136Z,19.67
2018-10-18T08:26:37.395Z,20.70
2018-10-18T08:29:06.595Z,20.37
2018-10-18T08:31:35.916Z,20.87
2018-10-18T08:34:05.085Z,20.13
2018-10-18T08:36:34.212Z,20.77
2018-10-18T08:39:04.036Z,21.07
2018-10-18T08:41:33.223Z,18.47
2018-10-18T08:44:02.316Z,44.90
2018-10-18T08:46:31.504Z,20.67
2018-10-18T08:49:00.655Z,19.47
2018-10-18T08:51:29.947Z,18.23
2018-10-18T08:53:59.120Z,17.93
2018-10-18T08:56:28.372Z,17.53
2018-10-18T08:58:57.494Z,16.40
2018-10-18T09:01:26.728Z,17.63
2018-10-18T09:03:55.907Z,17.37
2018-10-18T09:06:25.138Z,17.20
2018-10-18T09:08:54.313Z,17.50
2018-10-18T09:11:23.477Z,17.17
2018-10-18T09:13:52.607Z,18.87
2018-10-18T09:16:21.804Z,16.53
2018-10-18T09:18:50.972Z,17.97
2018-10-18T09:21:20.139Z,16.33
2018-10-18T09:23:49.294Z,16.47
2018-10-18T09:26:18.573Z,16.57
2018-10-18T09:28:48.018Z,16.70
2018-10-18T09:31:17.325Z,15.23
2018-10-18T09:33:46.467Z,16.90
2018-10-18T09:36:15.524Z,17.07
2018-10-18T09:38:44.531Z,16.97
2018-10-18T09:41:13.744Z,16.30
2018-10-18T09:43:42.859Z,16.67
2018-10-18T09:46:12.140Z,16.77
2018-10-18T09:48:41.333Z,15.20
2018-10-18T09:51:10.536Z,15.30
2018-10-18T09:53:39.633Z,15.80
2018-10-18T09:56:08.786Z,16.27
2018-10-18T09:58:37.905Z,16.47
2018-10-18T10:01:12.236Z,16.60
2018-10-18T10:03:41.426Z,16.80
2018-10-18T10:06:10.517Z,17.57
2018-10-18T10:08:39.496Z,18.57
2018-10-18T10:11:08.503Z,16.87
2018-10-18T10:13:37.620Z,16.30
2018-10-18T10:16:06.803Z,14.93
2018-10-18T10:18:35.867Z,13.43
2018-10-18T10:21:05.089Z,16.17
2018-10-18T10:23:34.152Z,14.17
2018-10-18T10:26:03.544Z,13.87
2018-10-18T10:28:32.792Z,12.93
2018-10-18T10:31:02.005Z,13.77
2018-10-18T10:33:31.141Z,13.67
2018-10-18T10:36:00.242Z,12.57
2018-10-18T10:38:29.370Z,13.23
2018-10-18T10:40:58.699Z,12.20
2018-10-18T10:43:27.947Z,11.37
2018-10-18T10:45:57.380Z,12.47
2018-10-18T10:48:26.666Z,13.47
2018-10-18T10:50:55.725Z,11.83
2018-10-18T10:53:24.885Z,10.90
2018-10-18T10:55:54.044Z,11.43
2018-10-18T10:58:23.163Z,11.50
2018-10-18T11:01:11.174Z,12.93
2018-10-18T11:03:41.271Z,14.20
2018-10-18T11:06:10.771Z,14.90
2018-10-18T11:08:40.107Z,13.93
2018-10-18T11:11:09.696Z,13.47
2018-10-18T11:13:38.935Z,13.13
2018-10-18T11:16:08.277Z,14.17
2018-10-18T11:18:38.178Z,15.13
2018-10-18T11:21:08.436Z,12.53
2018-10-18T11:23:37.741Z,14.23
2018-10-18T11:26:07.018Z,12.40
2018-10-18T11:28:36.220Z,15.17
2018-10-18T11:31:05.508Z,13.10
2018-10-18T11:33:34.732Z,11.70
2018-10-18T11:36:03.986Z,12.63
2018-10-18T11:38:33.155Z,12.00
2018-10-18T11:41:02.524Z,11.70
2018-10-18T11:43:31.514Z,11.57
2018-10-18T11:46:00.652Z,12.17
2018-10-18T11:48:29.695Z,11.90
2018-10-18T11:50:58.835Z,11.10
2018-10-18T11:53:28.098Z,10.83
2018-10-18T11:55:57.268Z,11.70
2018-10-18T11:58:26.555Z,11.57
2018-10-18T12:00:55.909Z,11.00
2018-10-18T12:03:25.023Z,11.40
2018-10-18T12:05:54.105Z,10.97
2018-10-18T12:08:23.200Z,11.60
2018-10-18T12:10:52.244Z,10.80
2018-10-18T12:13:21.384Z,11.10
2018-10-18T12:15:50.592Z,10.97
2018-10-18T12:18:19.748Z,10.37
2018-10-18T12:20:49.051Z,11.13
2018-10-18T12:23:18.330Z,10.07
2018-10-18T12:25:47.543Z,10.63
2018-10-18T12:28:17.469Z,11.30
2018-10-18T12:30:46.560Z,11.77
2018-10-18T12:33:15.655Z,11.13
2018-10-18T12:35:44.820Z,10.70
2018-10-18T12:38:14.161Z,9.97
2018-10-18T12:40:43.122Z,10.87
2018-10-18T12:43:12.382Z,11.33
2018-10-18T12:45:41.629Z,10.73
2018-10-18T12:48:10.837Z,10.37
2018-10-18T12:50:39.961Z,10.17
2018-10-18T12:53:09.151Z,10.13
2018-10-18T12:55:38.364Z,10.40
2018-10-18T12:58:07.529Z,9.57
2018-10-18T13:00:36.737Z,10.77
2018-10-18T13:03:05.724Z,10.27
2018-10-18T13:05:34.936Z,10.70
2018-10-18T13:08:04.035Z,10.70
2018-10-18T13:10:33.269Z,11.53
2018-10-18T13:13:02.747Z,11.77
2018-10-18T13:15:32.012Z,10.80
2018-10-18T13:18:01.203Z,12.37
2018-10-18T13:20:30.417Z,13.17
2018-10-18T13:22:59.657Z,12.43
2018-10-18T13:25:28.949Z,11.93
2018-10-18T13:27:58.133Z,12.53
2018-10-18T13:30:27.199Z,12.60
2018-10-18T13:32:56.401Z,12.30
2018-10-18T13:35:25.724Z,13.10
2018-10-18T13:37:55.866Z,12.50
2018-10-18T13:40:25.112Z,13.67
2018-10-18T13:42:54.429Z,15.33
2018-10-18T13:45:23.648Z,18.40
2018-10-18T13:47:53.035Z,14.87
2018-10-18T13:50:22.237Z,12.40
2018-10-18T13:52:51.074Z,12.63
2018-10-18T13:55:20.033Z,12.97
2018-10-18T13:57:49.205Z,13.70
2018-10-18T14:00:22.212Z,13.23
2018-10-18T14:02:52.604Z,14.57
2018-10-18T14:05:21.963Z,14.53
2018-10-18T14:07:52.103Z,14.17
2018-10-18T14:10:20.963Z,13.43
2018-10-18T14:12:50.582Z,13.53
2018-10-18T14:15:19.740Z,13.37
2018-10-18T14:17:49.042Z,13.80
2018-10-18T14:20:18.320Z,14.83
2018-10-18T14:22:47.432Z,14.67
2018-10-18T14:25:16.460Z,14.73
2018-10-18T14:27:45.329Z,14.63
2018-10-18T14:30:14.839Z,14.23
2018-10-18T14:32:43.886Z,14.37
2018-10-18T14:35:13.457Z,14.30
2018-10-18T14:37:42.587Z,14.37
2018-10-18T14:40:12.560Z,14.47
2018-10-18T14:42:41.871Z,15.47
2018-10-18T14:45:11.199Z,13.80
2018-10-18T14:47:40.493Z,14.77
2018-10-18T14:50:11.988Z,14.40
2018-10-18T14:52:41.165Z,14.40
2018-10-18T14:55:10.488Z,14.43
2018-10-18T14:57:40.006Z,15.13
2018-10-18T15:00:10.776Z,14.47
2018-10-18T15:02:39.895Z,14.93
2018-10-18T15:05:10.385Z,15.37
2018-10-18T15:07:40.238Z,16.17
2018-10-18T15:10:11.320Z,14.73
2018-10-18T15:12:40.811Z,16.00
2018-10-18T15:15:11.092Z,17.77
2018-10-18T15:17:40.252Z,17.13
2018-10-18T15:20:10.481Z,17.33
2018-10-18T15:22:40.201Z,16.93
2018-10-18T15:25:10.222Z,16.97
2018-10-18T15:27:39.721Z,55.27
2018-10-18T15:30:10.039Z,21.57
2018-10-18T15:32:46.004Z,20.13
2018-10-18T15:35:15.359Z,18.17
2018-10-18T15:37:44.708Z,17.93
2018-10-18T15:40:13.564Z,17.00
2018-10-18T15:42:42.735Z,16.47
2018-10-18T15:45:12.238Z,24.17
2018-10-18T15:47:41.507Z,18.53
2018-10-18T15:50:11.095Z,16.23
2018-10-18T15:52:40.316Z,16.80
2018-10-18T15:55:09.805Z,17.77
2018-10-18T15:57:38.964Z,15.50
2018-10-18T16:00:09.563Z,15.77
2018-10-18T16:02:38.883Z,16.17
2018-10-18T16:05:08.302Z,15.53
2018-10-18T16:07:37.617Z,16.67
2018-10-18T16:10:07.721Z,16.33
2018-10-18T16:12:37.037Z,16.63
2018-10-18T16:15:07.090Z,16.07
2018-10-18T16:17:36.432Z,16.23
2018-10-18T16:20:06.498Z,16.30
2018-10-18T16:22:35.923Z,16.10
2018-10-18T16:25:05.238Z,16.60
2018-10-18T16:27:34.516Z,17.53
2018-10-18T16:30:03.471Z,16.43
2018-10-18T16:32:32.702Z,17.50
2018-10-18T16:35:01.740Z,18.17
2018-10-18T16:37:30.640Z,18.90
2018-10-18T16:39:59.825Z,18.30
2018-10-18T16:42:28.632Z,18.93
2018-10-18T16:44:57.786Z,17.23
2018-10-18T16:47:26.726Z,17.63
2018-10-18T16:49:55.976Z,16.90
2018-10-18T16:52:25.497Z,16.87
2018-10-18T16:54:54.396Z,16.63
2018-10-18T16:57:23.637Z,17.00
2018-10-18T16:59:52.747Z,59.63
2018-10-18T17:02:21.850Z,29.50
2018-10-18T17:04:51.056Z,28.43
2018-10-18T17:07:20.467Z,20.40
2018-10-18T17:09:49.751Z,16.93
2018-10-18T17:12:18.963Z,16.73
2018-10-18T17:14:48.232Z,30.57
2018-10-18T17:17:17.463Z,49.50
2018-10-18T17:19:46.700Z,32.73
2018-10-18T17:22:15.945Z,17.40
2018-10-18T17:24:45.062Z,17.00
2018-10-18T17:27:14.096Z,17.30
2018-10-18T17:29:45.748Z,16.80
2018-10-18T17:32:14.884Z,17.40
2018-10-18T17:34:44.172Z,17.10
2018-10-18T17:37:13.332Z,18.63
2018-10-18T17:39:42.481Z,18.03
2018-10-18T17:42:11.774Z,22.90
2018-10-18T17:44:40.966Z,24.43
2018-10-18T17:47:10.216Z,21.70
2018-10-18T17:49:39.356Z,20.63
2018-10-18T17:52:08.631Z,18.73
2018-10-18T17:54:37.894Z,26.77
2018-10-18T17:57:07.272Z,36.27
2018-10-18T17:59:36.201Z,19.90
2018-10-18T18:02:05.509Z,19.80
2018-10-18T18:04:34.537Z,28.00
2018-10-18T18:07:04.391Z,19.23
2018-10-18T18:09:33.229Z,18.17
2018-10-18T18:12:02.105Z,18.63
2018-10-18T18:14:31.218Z,19.27
2018-10-18T18:17:00.200Z,18.67
2018-10-18T18:19:29.105Z,17.17
2018-10-18T18:21:58.494Z,18.73
2018-10-18T18:24:27.704Z,18.87
2018-10-18T18:26:56.856Z,18.77
2018-10-18T18:29:25.895Z,18.43
2018-10-18T18:31:55.125Z,17.97
2018-10-18T18:34:24.392Z,17.50
2018-10-18T18:36:53.572Z,16.00
2018-10-18T18:39:22.645Z,16.03
2018-10-18T18:41:51.448Z,16.03
2018-10-18T18:44:20.291Z,17.00
2018-10-18T18:46:49.403Z,16.73
2018-10-18T18:49:18.207Z,16.93
2018-10-18T18:51:47.170Z,16.57
2018-10-18T18:54:16.328Z,16.37
2018-10-18T18:56:45.479Z,59.53
2018-10-18T18:59:14.566Z,53.60
2018-10-18T19:01:43.755Z,40.30
2018-10-18T19:04:12.889Z,20.73
2018-10-18T19:06:42.008Z,68.70
2018-10-18T19:09:11.174Z,63.07
2018-10-18T19:11:40.414Z,74.73
2018-10-18T19:14:09.957Z,71.47
2018-10-18T19:16:39.146Z,18.90
2018-10-18T19:19:08.275Z,69.70
2018-10-18T19:21:37.519Z,55.97
2018-10-18T19:24:06.830Z,16.97
2018-10-18T19:26:35.880Z,16.83
2018-10-18T19:29:04.976Z,68.10
2018-10-18T19:31:34.034Z,85.03
2018-10-18T19:34:03.307Z,30.27
2018-10-18T19:36:32.757Z,18.00
2018-10-18T19:39:01.764Z,16.70
2018-10-18T19:41:30.842Z,16.00
2018-10-18T19:44:00.191Z,16.33
2018-10-18T19:46:29.402Z,16.13
2018-10-18T19:48:58.604Z,16.00
2018-10-18T19:51:27.867Z,15.43
2018-10-18T19:53:57.278Z,15.30
2018-10-18T19:56:26.473Z,16.87
2018-10-18T19:58:56.344Z,16.27
2018-10-18T20:01:25.436Z,46.23
2018-10-18T20:03:54.460Z,95.43
2018-10-18T20:06:23.541Z,70.93
2018-10-18T20:08:52.545Z,29.37
2018-10-18T20:11:21.742Z,35.53
2018-10-18T20:13:50.816Z,37.87
2018-10-18T20:16:20.040Z,28.03
2018-10-18T20:18:49.254Z,16.93
2018-10-18T20:21:18.437Z,15.33
2018-10-18T20:23:47.444Z,16.63
2018-10-18T20:26:16.971Z,16.90
2018-10-18T20:28:45.847Z,15.93
2018-10-18T20:31:15.040Z,15.57
2018-10-18T20:33:44.085Z,16.00
2018-10-18T20:36:13.326Z,16.40
2018-10-18T20:38:42.487Z,20.87
2018-10-18T20:41:11.770Z,18.77
2018-10-18T20:43:40.997Z,20.23
2018-10-18T20:46:10.305Z,18.67
2018-10-18T20:48:39.416Z,19.73
2018-10-18T20:51:08.622Z,29.70
2018-10-18T20:53:37.803Z,31.10
2018-10-18T20:56:06.904Z,16.03
2018-10-18T20:58:35.851Z,15.53
2018-10-18T21:01:05.290Z,15.33
2018-10-18T21:03:34.280Z,15.17
2018-10-18T21:06:03.352Z,15.17
2018-10-18T21:08:32.440Z,17.03
2018-10-18T21:11:01.444Z,16.00
2018-10-18T21:13:30.414Z,15.97
2018-10-18T21:15:59.520Z,16.37
2018-10-18T21:18:28.653Z,15.30
2018-10-18T21:20:57.846Z,15.77
2018-10-18T21:23:27.014Z,15.40
2018-10-18T21:25:55.881Z,15.13
2018-10-18T21:28:24.739Z,15.40
2018-10-18T21:30:53.929Z,14.77
2018-10-18T21:33:23.118Z,15.40
2018-10-18T21:35:52.401Z,14.73
2018-10-18T21:38:21.263Z,15.17
2018-10-18T21:40:50.049Z,16.37
2018-10-18T21:43:19.295Z,14.93
2018-10-18T21:45:48.656Z,15.57
2018-10-18T21:48:18.013Z,15.93
2018-10-18T21:50:47.150Z,16.30
2018-10-18T21:53:16.145Z,16.37
2018-10-18T21:55:45.158Z,15.30
2018-10-18T21:58:14.320Z,15.03
2018-10-18T22:00:45.920Z,14.20
2018-10-18T22:03:14.887Z,15.03
2018-10-18T22:05:43.980Z,14.63
2018-10-18T22:08:13.072Z,13.83
2018-10-18T22:10:42.152Z,13.27
2018-10-18T22:13:11.405Z,13.17
2018-10-18T22:15:40.563Z,13.60
2018-10-18T22:18:09.744Z,14.47
2018-10-18T22:20:38.848Z,15.30
2018-10-18T22:23:08.177Z,15.23
2018-10-18T22:25:37.394Z,15.77
2018-10-18T22:28:06.680Z,15.83
2018-10-18T22:30:35.857Z,15.40
2018-10-18T22:33:05.400Z,14.57
2018-10-18T22:35:34.548Z,16.17
2018-10-18T22:38:03.767Z,15.53
2018-10-18T22:40:32.742Z,14.73
2018-10-18T22:43:01.860Z,14.47
2018-10-18T22:45:30.908Z,14.27
2018-10-18T22:47:59.927Z,14.20
2018-10-18T22:50:28.938Z,14.90
2018-10-18T22:52:57.991Z,15.63
2018-10-18T22:55:27.239Z,14.27
2018-10-18T22:57:56.420Z,14.93
2018-10-18T23:00:25.620Z,15.03
2018-10-18T23:02:54.760Z,14.70
2018-10-18T23:05:23.785Z,15.40
2018-10-18T23:07:52.762Z,14.77
2018-10-18T23:10:21.855Z,15.10
2018-10-18T23:12:50.723Z,15.10
2018-10-18T23:15:19.898Z,14.90
2018-10-18T23:17:49.052Z,15.23
2018-10-18T23:20:18.094Z,14.20
2018-10-18T23:22:47.234Z,13.17
2018-10-18T23:25:16.335Z,10.77
2018-10-18T23:27:45.566Z,10.17
2018-10-18T23:30:14.388Z,10.80
2018-10-18T23:32:43.550Z,11.87
2018-10-18T23:35:12.660Z,14.27
2018-10-18T23:37:41.607Z,12.77
2018-10-18T23:40:10.836Z,12.70
2018-10-18T23:42:40.047Z,12.83
2018-10-18T23:45:09.626Z,13.40
2018-10-18T23:47:38.770Z,14.00
2018-10-18T23:50:08.000Z,13.83
2018-10-18T23:52:37.132Z,13.60
2018-10-18T23:55:06.381Z,12.43
2018-10-18T23:57:35.201Z,11.50
